CheckWX is a tool to help pilots better visualize weather data.  It is not intended as a substitute for an official pre-flight weather briefing.

01:55:10 UTC

LPPS TAF
Porto Santo Airport
Vila Baleira, Portugal
TAF LPPS 182300Z 1900/2006 05013KT 9999 FEW015 BKN030 PROB30 TEMPO 1900/1924 05015G25KT

Mar-19@
00:00 UTC

Mar-19 @ 00:00 UTC

Mar-20@
06:00 UTC

Mar-20 @ 06:00 UTC

TAF LPPS 182300Z 1900/2006 05013KT 9999 FEW015 BKN030
Wind
  • 050° at 13 KTS
Cloud Levels
  • Few at 1,500' AGL
  • Broken at 3,000' AGL

Mar-19@
00:00 UTC

Mar-19 @ 00:00 UTC

Mar-20@
00:00 UTC

Mar-20 @ 00:00 UTC

PROB30 TEMPO 1900/1924 05015G25KT

Temporary - 30% Likelihood

Temporary - 30% Likelihood during this time.

Wind
  • 050° at 15 KTS
  • {Gusting to 25 KTS